This is the latest recevied weather packets stored in our database for station/object W5HKR. If no packets are shown the sender has not sent any weather packets the latest 10 day(s).
| Time | Temp. | Humidity | Pressure | Rain* | Wind** | Luminosity | Snow |
|---|---|---|---|---|---|---|---|
| 1778216273 | 17.22° C | 75% | 986.6 hPa | 0 mm | - | - | - |
| 1778216001 | 17.22° C | 73% | 985.4 hPa | 0 mm | - | - | - |
| 1778215701 | 17.22° C | 73% | 985.1 hPa | 0 mm | - | - | - |
| 1778215400 | 18.33° C | 91% | 990.6 hPa | 0 mm | - | - | - |
| 1778215194 | 18.33° C | 91% | 990.6 hPa | 0 mm | - | - | - |
| 1778215102 | 18.33° C | 91% | 990.6 hPa | 0 mm | - | - | - |
| 1778214801 | 18.33° C | 91% | 990.6 hPa | 0 mm | - | - | - |
| 1778214502 | 17.78° C | 73% | 985.7 hPa | 0 mm | - | - | - |
| 1778214202 | 17.78° C | 72% | 985.3 hPa | 0 mm | - | - | - |
| 1778214112 | 18.33° C | 91% | 990.6 hPa | 0 mm | - | - | - |
| 1778213901 | 17.78° C | 72% | 985.8 hPa | 0 mm | - | - | - |
| 1778213601 | 18.33° C | 91% | 990.6 hPa | 0 mm | - | - | - |
| 1778213301 | 18.33° C | 91% | 990.6 hPa | 0 mm | - | - | - |
| 1778213031 | 18.33° C | 91% | 990.6 hPa | 0 mm | - | - | - |
| 1778213001 | 18.33° C | 91% | 990.6 hPa | 0 mm | - | - | - |
| 1778212702 | 17.78° C | 71% | 986.1 hPa | 0 mm | - | - | - |
| 1778212402 | 18.33° C | 91% | 990.6 hPa | 0 mm | - | - | - |
| 1778212102 | 17.78° C | 70% | 986.5 hPa | 0 mm | - | - | - |
| 1778211951 | 17.78° C | 71% | 986.5 hPa | 0 mm | - | - | - |
| 1778211802 | 18.33° C | 70% | 986.1 hPa | 0 mm | - | - | - |
| 1778211501 | 18.33° C | 70% | 986.4 hPa | 0 mm | - | - | - |
| 1778211203 | 18.33° C | 70% | 986.7 hPa | 0 mm | - | - | - |
| 1778210872 | 18.33° C | 71% | 986.5 hPa | 0 mm | - | - | - |
| 1778210602 | 18.33° C | 70% | 986.8 hPa | 0 mm | - | - | - |
| 1778210302 | 18.33° C | 91% | 990.6 hPa | 0 mm | - | - | - |
* Rain latest hour (hover to see other rain measurements)
** Current wind speed in m/s (hover to see current wind gust speed)